Time;durP1;ratioP1;P1;durP2;ratioP2;P2;SDS_P1;SDS_P2;PMS_P1;PMS_P2;Temp;Humidity;BMP_temperature;BMP_pressure;BME280_temperature;BME280_humidity;BME280_pressure;Samples;Min_cycle;Max_cycle;Signal;HPM_P1;HPM_P2
2022/02/10 00:20:55;;;;;;;19.35;14.55;;;3.00;99.90;;;;;;5016030;28;20025;-74
2022/02/10 00:34:11;;;;;;;18.27;15.13;;;3.10;99.90;;;;;;5012920;28;20026;-73
2022/02/10 00:34:32;;;;;;;23.42;16.75;;;3.20;99.90;;;;;;5021613;28;20040;-73
2022/02/10 00:39:40;;;;;;;20.60;15.40;;;3.00;99.90;;;;;;5029388;28;20018;-73
2022/02/10 00:42:06;;;;;;;22.08;16.85;;;3.10;99.90;;;;;;5015795;28;20026;-73
2022/02/10 00:44:31;;;;;;;19.13;14.68;;;3.00;99.90;;;;;;5011940;28;20072;-74
2022/02/10 00:46:57;;;;;;;21.75;16.02;;;3.10;99.90;;;;;;5028779;28;20526;-74
2022/02/10 00:49:22;;;;;;;18.45;15.18;;;3.00;99.90;;;;;;5012342;28;20030;-74
2022/02/10 00:51:49;;;;;;;22.58;16.50;;;3.00;99.90;;;;;;5016216;28;20030;-73
2022/02/10 00:54:19;;;;;;;20.17;15.68;;;2.80;99.90;;;;;;5021799;28;20029;-75
2022/02/10 00:56:45;;;;;;;20.60;16.00;;;2.80;99.90;;;;;;5017186;28;20025;-74
2022/02/10 00:59:23;;;;;;;22.65;16.05;;;2.70;99.90;;;;;;5016778;28;20032;-73
2022/02/10 01:12:59;;;;;;;18.40;15.07;;;2.80;99.90;;;;;;5020090;28;20112;-74
2022/02/10 01:31:39;;;;;;;17.98;14.07;;;2.80;99.90;;;;;;5006098;28;20514;-75
2022/02/10 01:34:05;;;;;;;19.20;15.65;;;2.90;99.90;;;;;;5016930;28;20033;-74
2022/02/10 01:36:31;;;;;;;21.17;15.65;;;2.90;99.90;;;;;;5031944;28;20030;-74
2022/02/10 01:38:56;;;;;;;20.08;16.15;;;3.00;99.90;;;;;;5034366;28;20030;-74
2022/02/10 02:05:50;;;;;;;19.20;15.93;;;2.60;99.90;;;;;;5042259;28;20029;-70
2022/02/10 02:08:21;;;;;;;19.90;15.30;;;2.60;99.90;;;;;;5032442;28;20057;-71
2022/02/10 02:10:47;;;;;;;21.42;17.45;;;2.50;99.90;;;;;;5022559;28;20117;-71
2022/02/10 02:13:13;;;;;;;20.50;16.60;;;2.60;99.90;;;;;;5034300;28;20431;-71
2022/02/10 02:15:38;;;;;;;22.05;16.92;;;2.40;99.90;;;;;;5034025;28;20037;-71
2022/02/10 02:18:04;;;;;;;21.00;15.55;;;2.40;99.90;;;;;;5034199;28;20029;-71
2022/02/10 02:20:29;;;;;;;21.67;17.38;;;2.50;99.90;;;;;;5025289;28;20105;-71
2022/02/10 02:22:54;;;;;;;18.27;15.27;;;2.40;99.90;;;;;;5029209;28;20025;-71
2022/02/10 02:25:21;;;;;;;20.15;16.48;;;2.60;99.90;;;;;;5014364;28;20033;-71
2022/02/10 02:27:50;;;;;;;21.27;17.63;;;2.50;99.90;;;;;;5027597;28;20021;-70
2022/02/10 02:30:24;;;;;;;20.88;16.98;;;2.50;99.90;;;;;;5014193;28;20474;-72
2022/02/10 02:33:25;;;;;;;18.65;15.98;;;2.40;99.90;;;;;;5030905;28;20080;-71
2022/02/10 02:38:46;;;;;;;19.27;16.52;;;2.40;99.90;;;;;;5031106;28;20328;-71
2022/02/10 03:08:19;;;;;;;17.30;15.43;;;2.40;99.90;;;;;;5033949;28;20026;-71
2022/02/10 03:13:14;;;;;;;20.90;14.98;;;2.30;99.90;;;;;;5027754;28;20367;-71
2022/02/10 03:16:01;;;;;;;18.73;15.45;;;2.40;99.90;;;;;;5033127;28;20032;-71
2022/02/10 04:21:03;;;;;;;22.08;18.75;;;2.10;99.90;;;;;;5023918;28;20061;-72
2022/02/10 05:12:15;;;;;;;18.08;15.13;;;2.10;99.90;;;;;;5018537;28;20034;-70
2022/02/10 05:36:01;;;;;;;22.08;19.73;;;2.20;99.90;;;;;;5021761;28;20113;-71
2022/02/10 05:38:32;;;;;;;19.45;17.42;;;2.30;99.90;;;;;;5035155;28;20032;-71
2022/02/10 05:43:50;;;;;;;16.02;14.32;;;2.30;99.90;;;;;;5023698;28;20022;-71
2022/02/10 05:54:17;;;;;;;15.27;13.48;;;2.50;99.90;;;;;;5028474;28;20041;-71
2022/02/10 05:57:14;;;;;;;15.07;13.27;;;2.40;99.90;;;;;;5028131;28;20060;-71
2022/02/10 05:59:54;;;;;;;18.52;14.13;;;2.30;99.90;;;;;;5034154;28;20033;-71
2022/02/10 06:49:23;;;;;;;16.23;14.02;;;2.60;99.90;;;;;;5033745;28;20399;-71
2022/02/10 06:52:06;;;;;;;15.90;12.23;;;2.50;99.90;;;;;;5042191;28;20425;-70
2022/02/10 06:54:56;;;;;;;14.38;12.70;;;2.50;99.90;;;;;;5021950;28;20021;-70
2022/02/10 06:57:52;;;;;;;16.35;12.60;;;2.50;99.90;;;;;;5043319;28;20048;-71
2022/02/10 07:13:25;;;;;;;16.10;12.07;;;2.50;99.90;;;;;;5044986;28;20056;-71
2022/02/10 07:16:26;;;;;;;13.48;11.43;;;2.50;99.90;;;;;;5025541;28;20537;-71
2022/02/10 07:54:15;;;;;;;14.23;11.60;;;2.90;99.90;;;;;;5027582;28;20384;-71
2022/02/10 08:49:36;;;;;;;11.52;8.20;;;3.60;99.90;;;;;;5032133;28;20053;-71
2022/02/10 08:49:44;;;;;;;11.27;8.82;;;3.70;99.90;;;;;;5031600;28;20051;-71
2022/02/10 08:59:32;;;;;;;9.98;7.97;;;4.50;99.90;;;;;;4994537;28;20034;-71
2022/02/10 09:04:57;;;;;;;11.02;7.97;;;4.30;99.90;;;;;;5008378;28;20438;-71
2022/02/10 09:27:51;;;;;;;9.55;7.88;;;4.80;99.90;;;;;;5031503;28;20030;-71
2022/02/10 09:47:35;;;;;;;9.65;7.20;;;4.90;99.90;;;;;;5031155;28;20611;-71
2022/02/10 10:04:54;;;;;;;9.50;6.20;;;5.50;99.90;;;;;;5034846;28;20483;-71
2022/02/10 10:07:47;;;;;;;8.00;5.70;;;5.60;99.90;;;;;;5034537;28;20108;-71
2022/02/10 10:10:44;;;;;;;6.68;5.88;;;5.60;99.90;;;;;;5034266;28;20090;-71
2022/02/10 10:21:26;;;;;;;7.47;6.25;;;6.20;99.90;;;;;;5034328;28;20033;-71
2022/02/10 10:24:28;;;;;;;10.30;6.72;;;6.30;99.90;;;;;;5034187;28;20032;-71
2022/02/10 10:57:07;;;;;;;10.38;6.95;;;6.60;99.90;;;;;;5033499;28;20021;-71
2022/02/10 11:22:18;;;;;;;10.38;5.97;;;6.70;99.90;;;;;;5027676;28;20036;-71
2022/02/10 11:39:28;;;;;;;8.80;5.75;;;7.00;99.90;;;;;;5034839;28;20483;-71
2022/02/10 12:00:12;;;;;;;9.93;6.32;;;6.90;99.90;;;;;;5031897;28;20037;-72
2022/02/10 13:28:47;;;;;;;11.13;6.65;;;7.10;99.90;;;;;;5031122;28;20029;-71
2022/02/10 14:15:04;;;;;;;12.07;6.97;;;6.80;99.90;;;;;;5034440;28;20025;-71
2022/02/10 14:17:35;;;;;;;13.55;6.70;;;6.80;99.90;;;;;;5034348;28;20021;-71
2022/02/10 14:20:11;;;;;;;10.82;7.00;;;6.70;99.90;;;;;;5034293;28;20463;-71
2022/02/10 14:22:50;;;;;;;10.63;6.65;;;6.80;99.90;;;;;;5034413;28;20411;-71
2022/02/10 14:27:59;;;;;;;9.68;7.22;;;6.80;99.90;;;;;;5030647;28;20037;-72
2022/02/10 14:30:25;;;;;;;9.38;7.13;;;6.70;99.90;;;;;;5024268;28;20029;-71
2022/02/10 14:32:51;;;;;;;7.97;6.65;;;6.70;99.90;;;;;;5033990;28;20053;-72
2022/02/10 14:35:23;;;;;;;10.65;6.60;;;6.80;99.90;;;;;;5032627;28;20047;-72
2022/02/10 15:16:32;;;;;;;9.68;5.75;;;6.80;99.90;;;;;;5032181;28;20046;-72
2022/02/10 16:17:27;;;;;;;8.00;5.70;;;6.50;99.90;;;;;;5032845;28;20394;-71
2022/02/10 16:19:54;;;;;;;7.30;5.28;;;6.40;99.90;;;;;;5030973;28;20022;-71
2022/02/10 16:24:59;;;;;;;5.72;4.72;;;6.40;99.90;;;;;;5030884;28;20041;-71
2022/02/10 16:27:28;;;;;;;6.88;4.93;;;6.40;99.90;;;;;;5029960;28;20120;-71
2022/02/10 16:30:04;;;;;;;9.70;4.85;;;6.50;99.90;;;;;;5030558;28;20021;-72
2022/02/10 16:32:31;;;;;;;5.53;4.80;;;6.40;99.90;;;;;;5030718;28;20025;-71
2022/02/10 16:35:01;;;;;;;6.57;5.30;;;6.40;99.90;;;;;;5029942;28;20121;-72
2022/02/10 16:37:27;;;;;;;9.00;5.43;;;6.40;99.90;;;;;;5030601;28;20040;-71
2022/02/10 16:39:53;;;;;;;6.35;4.72;;;6.40;99.90;;;;;;5029397;28;20120;-72
2022/02/10 16:42:18;;;;;;;6.40;4.80;;;6.30;99.90;;;;;;5030225;28;20105;-71
2022/02/10 16:44:46;;;;;;;6.78;5.10;;;6.20;99.90;;;;;;5029541;28;20017;-71
2022/02/10 16:47:12;;;;;;;9.45;5.30;;;6.20;99.90;;;;;;5028863;28;20445;-71
2022/02/10 16:49:44;;;;;;;6.38;5.32;;;6.10;99.90;;;;;;5029977;28;20030;-72
2022/02/10 16:52:10;;;;;;;6.05;5.03;;;6.30;99.90;;;;;;5029942;28;20029;-71
2022/02/10 16:54:43;;;;;;;6.15;5.50;;;6.20;99.90;;;;;;5029764;28;20030;-72
2022/02/10 17:05:29;;;;;;;7.65;5.63;;;6.00;99.90;;;;;;5033009;28;20032;-71
2022/02/10 17:26:47;;;;;;;7.88;6.38;;;5.90;99.90;;;;;;5033541;28;20091;-71
2022/02/10 17:29:27;;;;;;;10.23;6.05;;;6.00;99.90;;;;;;5033837;28;20037;-71
2022/02/10 17:34:27;;;;;;;9.43;6.75;;;5.80;99.90;;;;;;5033300;28;20022;-71
2022/02/10 17:37:12;;;;;;;8.93;6.40;;;5.90;99.90;;;;;;5032972;28;20021;-71
2022/02/10 17:43:46;;;;;;;8.15;6.15;;;5.80;99.90;;;;;;5033385;28;20040;-71
2022/02/10 17:45:39;;;;;;;12.82;6.78;;;5.70;99.90;;;;;;5022709;28;20072;-71
2022/02/10 17:53:38;;;;;;;9.50;7.13;;;5.70;99.90;;;;;;5033581;28;20047;-71
2022/02/10 17:56:08;;;;;;;10.55;7.00;;;5.70;99.90;;;;;;5032863;28;20071;-71
2022/02/10 17:58:34;;;;;;;8.70;6.32;;;5.60;99.90;;;;;;5033200;28;20033;-71
2022/02/10 18:00:59;;;;;;;11.10;7.05;;;5.60;99.90;;;;;;5032500;28;20091;-71
2022/02/10 18:03:26;;;;;;;8.77;7.00;;;5.60;99.90;;;;;;5033149;28;20022;-71
2022/02/10 18:06:14;;;;;;;10.73;9.00;;;5.50;99.90;;;;;;5033257;28;20032;-71
2022/02/10 18:08:49;;;;;;;13.32;10.90;;;5.50;99.90;;;;;;5032848;28;20034;-72
2022/02/10 18:12:49;;;;;;;21.05;17.67;;;5.40;99.90;;;;;;5033209;28;20056;-71
2022/02/10 18:14:15;;;;;;;24.52;17.15;;;5.40;99.90;;;;;;5015414;28;20048;-71
2022/02/10 18:16:47;;;;;;;37.40;28.73;;;5.40;99.90;;;;;;5031439;28;20064;-71
2022/02/10 18:19:59;;;;;;;16.42;13.68;;;5.40;99.90;;;;;;5031836;28;20010;-72
2022/02/10 18:25:02;;;;;;;10.40;8.27;;;5.40;99.90;;;;;;5032746;28;20049;-71
2022/02/10 18:27:24;;;;;;;12.10;8.95;;;5.30;99.90;;;;;;5031919;28;20439;-71
2022/02/10 18:30:13;;;;;;;12.55;10.50;;;5.40;99.90;;;;;;5032893;28;20032;-71
2022/02/10 19:01:43;;;;;;;22.38;18.63;;;5.20;99.90;;;;;;5032567;28;20032;-72
2022/02/10 19:10:08;;;;;;;25.50;18.05;;;5.10;99.90;;;;;;5032139;28;20052;-71
2022/02/10 19:12:43;;;;;;;26.88;17.10;;;5.00;99.90;;;;;;5030160;28;20033;-71
2022/02/10 19:15:17;;;;;;;15.60;11.20;;;5.10;99.90;;;;;;5031909;28;20021;-71
2022/02/10 19:17:43;;;;;;;20.67;14.05;;;5.10;99.90;;;;;;5031291;28;20288;-72
2022/02/10 19:20:09;;;;;;;16.77;12.20;;;5.00;99.90;;;;;;5031363;28;20017;-71
2022/02/10 19:22:37;;;;;;;13.20;10.63;;;5.10;99.90;;;;;;5030151;28;20021;-71
2022/02/10 19:25:05;;;;;;;16.58;12.20;;;5.10;99.90;;;;;;5031468;28;20375;-71
2022/02/10 19:27:31;;;;;;;31.60;19.13;;;5.00;99.90;;;;;;5030376;28;20025;-71
2022/02/10 19:29:58;;;;;;;15.55;11.88;;;5.00;99.90;;;;;;5031507;28;20030;-71
2022/02/10 19:32:28;;;;;;;15.18;11.65;;;5.00;99.90;;;;;;5031178;28;20022;-71
2022/02/10 19:34:55;;;;;;;14.27;10.57;;;4.90;99.90;;;;;;5031774;28;20022;-72
2022/02/10 19:37:22;;;;;;;12.10;10.43;;;5.00;99.90;;;;;;5031498;28;20399;-71
2022/02/10 19:39:57;;;;;;;18.42;12.38;;;4.90;99.90;;;;;;5031868;28;20946;-71
2022/02/10 19:42:23;;;;;;;13.07;8.98;;;4.90;99.90;;;;;;5031422;28;20048;-71
2022/02/10 19:44:49;;;;;;;11.95;9.13;;;4.90;99.90;;;;;;5031452;28;20037;-71
2022/02/10 19:47:14;;;;;;;13.02;9.93;;;4.90;99.90;;;;;;5031204;28;20033;-71
2022/02/10 19:49:42;;;;;;;13.43;11.30;;;4.90;99.90;;;;;;5031345;28;20112;-71
2022/02/10 19:52:08;;;;;;;9.50;8.13;;;5.00;99.90;;;;;;5031202;28;20104;-71
2022/02/10 19:54:39;;;;;;;10.90;8.57;;;5.00;99.90;;;;;;5031264;28;20162;-71
2022/02/10 19:57:05;;;;;;;12.55;8.38;;;5.00;99.90;;;;;;5031043;28;20123;-72
2022/02/10 19:59:32;;;;;;;10.43;8.52;;;5.00;99.90;;;;;;5030706;28;20098;-71
2022/02/10 20:01:58;;;;;;;11.13;8.00;;;4.90;99.90;;;;;;5030750;28;20064;-71
2022/02/10 20:04:25;;;;;;;11.57;8.73;;;4.90;99.90;;;;;;5031435;28;20045;-71
2022/02/10 20:06:52;;;;;;;11.60;8.05;;;4.90;99.90;;;;;;5031291;28;20032;-71
2022/02/10 20:09:18;;;;;;;9.98;7.90;;;4.90;99.90;;;;;;5030680;28;20041;-71
2022/02/10 20:11:46;;;;;;;12.13;8.90;;;4.90;99.90;;;;;;5030612;28;20040;-71
2022/02/10 20:14:11;;;;;;;13.45;9.35;;;4.90;99.90;;;;;;5031005;28;20021;-71
2022/02/10 20:16:37;;;;;;;11.80;8.65;;;4.80;99.90;;;;;;5030799;28;20053;-71
2022/02/10 20:19:05;;;;;;;19.23;12.32;;;4.90;99.90;;;;;;5029280;28;20029;-72
2022/02/10 20:21:30;;;;;;;16.70;12.00;;;4.90;99.90;;;;;;5030425;28;20022;-71
2022/02/10 20:23:56;;;;;;;13.35;8.73;;;5.00;99.90;;;;;;5030435;28;20032;-71
2022/02/10 20:26:22;;;;;;;10.98;8.68;;;4.80;99.90;;;;;;5039139;23;20054;-73
2022/02/10 20:28:47;;;;;;;11.02;8.80;;;4.80;99.90;;;;;;5011259;28;20084;-74
2022/02/10 20:31:14;;;;;;;9.77;8.45;;;4.80;99.90;;;;;;5022297;28;20017;-74
2022/02/10 20:33:40;;;;;;;14.63;10.93;;;4.80;99.90;;;;;;5020370;28;20030;-74
2022/02/10 20:36:06;;;;;;;11.82;9.30;;;4.80;99.90;;;;;;5006529;28;20117;-76
2022/02/10 20:38:36;;;;;;;12.55;10.85;;;4.80;99.90;;;;;;5000303;28;20022;-74
2022/02/10 20:41:09;;;;;;;13.98;9.98;;;4.80;99.90;;;;;;5007005;28;20629;-73
2022/02/10 20:43:35;;;;;;;13.30;9.55;;;4.80;99.90;;;;;;5002427;28;20058;-73
2022/02/10 20:46:04;;;;;;;12.70;9.73;;;4.80;99.90;;;;;;4987765;28;20485;-73
2022/02/10 20:48:33;;;;;;;11.82;10.02;;;4.90;99.90;;;;;;4992283;28;20051;-73
2022/02/10 20:51:00;;;;;;;16.98;11.52;;;4.90;99.90;;;;;;5008961;28;20029;-73
2022/02/10 20:53:29;;;;;;;12.52;10.35;;;4.80;99.90;;;;;;4997810;28;20033;-73
2022/02/10 20:56:03;;;;;;;12.15;9.13;;;4.80;99.90;;;;;;4997673;28;20376;-73
2022/02/10 20:58:30;;;;;;;11.68;8.40;;;4.80;99.90;;;;;;4992855;28;20097;-74
2022/02/10 21:00:59;;;;;;;10.35;8.25;;;4.80;99.90;;;;;;5000622;28;20234;-74
2022/02/10 21:03:27;;;;;;;11.73;8.63;;;4.70;99.90;;;;;;5005582;28;20105;-75
2022/02/10 21:06:03;;;;;;;12.35;9.60;;;4.70;99.90;;;;;;4990647;28;20049;-73
2022/02/10 21:08:40;;;;;;;10.55;9.45;;;4.80;99.90;;;;;;4990871;28;20476;-74
2022/02/10 21:11:06;;;;;;;10.05;8.43;;;4.70;99.90;;;;;;4990679;28;20038;-74
2022/02/10 21:13:33;;;;;;;12.07;8.82;;;4.70;99.90;;;;;;4992127;28;20027;-74
2022/02/10 21:15:59;;;;;;;13.25;9.88;;;4.70;99.90;;;;;;4991976;28;20057;-74
2022/02/10 21:18:26;;;;;;;13.50;9.60;;;4.70;99.90;;;;;;4992047;28;20046;-75
2022/02/10 21:20:57;;;;;;;13.23;9.50;;;4.80;99.90;;;;;;4988257;28;20601;-74
2022/02/10 21:23:29;;;;;;;15.10;11.10;;;4.70;99.90;;;;;;4984838;28;20027;-73
2022/02/10 21:25:56;;;;;;;12.85;10.25;;;4.80;99.90;;;;;;4990435;28;20034;-74
2022/02/10 21:28:42;;;;;;;13.00;10.52;;;4.70;99.90;;;;;;4992067;28;20033;-75
2022/02/10 21:31:09;;;;;;;12.93;10.73;;;4.70;99.90;;;;;;4990547;28;20026;-74
2022/02/10 21:39:26;;;;;;;16.50;11.45;;;4.70;99.90;;;;;;4991756;28;20018;-74
2022/02/10 21:47:43;;;;;;;12.10;9.60;;;4.70;99.90;;;;;;4993295;28;20030;-73
2022/02/10 21:58:37;;;;;;;13.25;10.77;;;4.70;99.90;;;;;;4996178;28;20015;-74
2022/02/10 22:06:36;;;;;;;17.05;10.73;;;4.60;99.90;;;;;;4995624;28;20030;-76
2022/02/10 22:09:19;;;;;;;17.65;10.90;;;4.60;99.90;;;;;;4992927;28;20023;-76
2022/02/10 22:17:27;;;;;;;16.25;11.65;;;4.60;99.90;;;;;;5000561;28;20083;-74
2022/02/10 22:19:59;;;;;;;20.50;14.07;;;4.60;99.90;;;;;;4991314;28;20027;-75
2022/02/10 22:22:34;;;;;;;23.55;14.88;;;4.60;99.90;;;;;;5001459;28;20023;-73
2022/02/10 22:25:03;;;;;;;23.20;15.52;;;4.60;99.90;;;;;;4996170;28;20018;-73
2022/02/10 22:27:33;;;;;;;14.68;12.27;;;4.60;99.90;;;;;;4987095;28;20037;-74
2022/02/10 22:30:04;;;;;;;14.63;11.95;;;4.50;99.90;;;;;;4992167;28;20543;-74
2022/02/10 22:32:48;;;;;;;13.63;11.43;;;4.50;99.90;;;;;;4995837;28;20030;-74
2022/02/10 22:35:13;;;;;;;14.40;12.35;;;4.50;99.90;;;;;;4994013;28;20502;-74
2022/02/10 22:37:41;;;;;;;16.13;12.68;;;4.60;99.90;;;;;;4994500;28;20034;-74
2022/02/10 22:40:22;;;;;;;16.50;12.20;;;4.50;99.90;;;;;;4994412;28;20026;-73
2022/02/10 22:42:47;;;;;;;15.95;13.82;;;4.40;99.90;;;;;;4997255;28;20050;-73
2022/02/10 22:45:14;;;;;;;17.95;14.50;;;4.40;99.90;;;;;;4994341;28;20500;-73
2022/02/10 22:47:39;;;;;;;18.27;14.20;;;4.40;99.90;;;;;;4989693;28;20030;-74
2022/02/10 22:50:06;;;;;;;18.55;14.50;;;4.40;99.90;;;;;;4994442;28;20522;-74
2022/02/10 22:52:31;;;;;;;20.15;14.65;;;4.40;99.90;;;;;;4997438;28;20141;-74
2022/02/10 22:54:57;;;;;;;18.25;14.70;;;4.30;99.90;;;;;;4994342;28;20030;-74
2022/02/10 22:57:22;;;;;;;16.90;14.63;;;4.30;99.90;;;;;;5000552;28;20106;-74
2022/02/10 22:59:48;;;;;;;17.67;14.77;;;4.30;99.90;;;;;;4994186;28;20387;-74
2022/02/10 23:02:13;;;;;;;15.73;14.02;;;4.30;99.90;;;;;;4994211;28;20018;-76
2022/02/10 23:04:39;;;;;;;17.50;14.73;;;4.30;99.90;;;;;;4993397;28;20029;-74
2022/02/10 23:07:09;;;;;;;18.33;14.13;;;4.30;99.90;;;;;;4997071;28;20034;-76
2022/02/10 23:12:09;;;;;;;18.95;14.65;;;4.30;99.90;;;;;;4992773;28;20030;-74
2022/02/10 23:14:35;;;;;;;17.65;14.05;;;4.40;99.90;;;;;;4993673;28;20085;-74
2022/02/10 23:17:00;;;;;;;18.17;14.50;;;4.50;99.90;;;;;;4993533;28;20090;-74
2022/02/10 23:19:26;;;;;;;16.98;13.88;;;4.50;99.90;;;;;;4994544;28;20038;-76
2022/02/10 23:21:52;;;;;;;16.92;13.80;;;4.40;99.90;;;;;;4995328;28;20033;-73
2022/02/10 23:24:18;;;;;;;22.42;14.88;;;4.40;99.90;;;;;;4995181;28;20026;-73
2022/02/10 23:26:43;;;;;;;18.10;14.30;;;4.40;99.90;;;;;;4993295;28;20066;-73
2022/02/10 23:29:09;;;;;;;18.15;15.38;;;4.40;99.90;;;;;;4996119;28;20031;-75
2022/02/10 23:31:36;;;;;;;18.80;15.13;;;4.30;99.90;;;;;;4994043;28;20030;-73
2022/02/10 23:34:03;;;;;;;18.17;14.38;;;4.30;99.90;;;;;;4993704;28;20026;-75
2022/02/10 23:44:16;;;;;;;20.70;15.32;;;4.20;99.90;;;;;;4993973;28;20426;-74
2022/02/10 23:46:43;;;;;;;18.38;15.27;;;4.20;99.90;;;;;;4987775;28;20472;-75
2022/02/10 23:49:10;;;;;;;19.70;15.98;;;4.20;99.90;;;;;;4999787;28;20030;-74
2022/02/10 23:51:45;;;;;;;19.52;15.48;;;4.20;99.90;;;;;;4994854;28;20025;-75
2022/02/10 23:54:11;;;;;;;;;;;4.20;99.90;;;;;;5001491;28;20076;-74
2022/02/10 23:56:43;;;;;;;20.60;15.83;;;4.20;99.90;;;;;;4997702;28;19909;-74
2022/02/10 23:59:21;;;;;;;18.83;15.45;;;4.20;99.90;;;;;;5002962;28;20528;-75
